sensor_id;sensor_type;location;lat;lon;timestamp;P1;durP1;ratioP1;P2;durP2;ratioP2
73869;SDS011;64924;42.140;24.762;2024-01-15T00:02:08;102.40;;;48.33;;
73869;SDS011;64924;42.140;24.762;2024-01-15T00:04:40;119.03;;;55.75;;
73869;SDS011;64924;42.140;24.762;2024-01-15T00:07:06;130.88;;;55.42;;
73869;SDS011;64924;42.140;24.762;2024-01-15T00:09:32;149.70;;;60.72;;
73869;SDS011;64924;42.140;24.762;2024-01-15T00:11:58;158.88;;;59.65;;
73869;SDS011;64924;42.140;24.762;2024-01-15T00:14:24;158.52;;;61.20;;
73869;SDS011;64924;42.140;24.762;2024-01-15T00:16:50;178.13;;;67.78;;
73869;SDS011;64924;42.140;24.762;2024-01-15T00:19:16;160.20;;;63.28;;
73869;SDS011;64924;42.140;24.762;2024-01-15T00:21:42;164.35;;;64.28;;
73869;SDS011;64924;42.140;24.762;2024-01-15T00:24:08;173.70;;;63.70;;
73869;SDS011;64924;42.140;24.762;2024-01-15T00:26:33;140.52;;;62.90;;
73869;SDS011;64924;42.140;24.762;2024-01-15T00:28:59;149.73;;;61.53;;
73869;SDS011;64924;42.140;24.762;2024-01-15T00:31:26;152.35;;;61.83;;
73869;SDS011;64924;42.140;24.762;2024-01-15T00:33:51;146.68;;;62.15;;
73869;SDS011;64924;42.140;24.762;2024-01-15T00:36:17;145.00;;;60.03;;
73869;SDS011;64924;42.140;24.762;2024-01-15T00:38:46;148.10;;;61.55;;
73869;SDS011;64924;42.140;24.762;2024-01-15T00:41:12;122.50;;;49.75;;
73869;SDS011;64924;42.140;24.762;2024-01-15T00:43:38;141.90;;;62.28;;
73869;SDS011;64924;42.140;24.762;2024-01-15T00:46:04;143.50;;;60.63;;
73869;SDS011;64924;42.140;24.762;2024-01-15T00:48:30;141.25;;;61.80;;
73869;SDS011;64924;42.140;24.762;2024-01-15T00:50:55;137.30;;;62.60;;
73869;SDS011;64924;42.140;24.762;2024-01-15T00:53:21;161.02;;;63.22;;
73869;SDS011;64924;42.140;24.762;2024-01-15T00:55:49;156.77;;;64.95;;
73869;SDS011;64924;42.140;24.762;2024-01-15T00:58:15;153.73;;;61.45;;
73869;SDS011;64924;42.140;24.762;2024-01-15T01:00:41;140.43;;;58.90;;
73869;SDS011;64924;42.140;24.762;2024-01-15T01:03:07;143.13;;;59.13;;
73869;SDS011;64924;42.140;24.762;2024-01-15T01:05:33;146.48;;;62.70;;
73869;SDS011;64924;42.140;24.762;2024-01-15T01:07:59;128.55;;;56.95;;
73869;SDS011;64924;42.140;24.762;2024-01-15T01:10:24;140.13;;;58.45;;
73869;SDS011;64924;42.140;24.762;2024-01-15T01:12:50;137.18;;;59.25;;
73869;SDS011;64924;42.140;24.762;2024-01-15T01:15:15;134.05;;;54.85;;
73869;SDS011;64924;42.140;24.762;2024-01-15T01:17:41;143.27;;;56.67;;
73869;SDS011;64924;42.140;24.762;2024-01-15T01:20:06;144.82;;;60.90;;
73869;SDS011;64924;42.140;24.762;2024-01-15T01:22:34;154.60;;;59.15;;
73869;SDS011;64924;42.140;24.762;2024-01-15T01:25:00;154.07;;;62.70;;
73869;SDS011;64924;42.140;24.762;2024-01-15T01:27:25;166.68;;;65.60;;
73869;SDS011;64924;42.140;24.762;2024-01-15T01:29:51;159.13;;;62.45;;
73869;SDS011;64924;42.140;24.762;2024-01-15T01:32:17;155.65;;;60.08;;
73869;SDS011;64924;42.140;24.762;2024-01-15T01:34:42;131.55;;;58.85;;
73869;SDS011;64924;42.140;24.762;2024-01-15T01:37:08;142.77;;;59.28;;
73869;SDS011;64924;42.140;24.762;2024-01-15T01:39:34;138.20;;;57.92;;
73869;SDS011;64924;42.140;24.762;2024-01-15T01:42:00;127.57;;;54.83;;
73869;SDS011;64924;42.140;24.762;2024-01-15T01:44:26;116.97;;;50.28;;
73869;SDS011;64924;42.140;24.762;2024-01-15T01:46:51;111.25;;;47.17;;
73869;SDS011;64924;42.140;24.762;2024-01-15T01:49:17;106.93;;;47.00;;
73869;SDS011;64924;42.140;24.762;2024-01-15T01:51:43;94.30;;;43.67;;
73869;SDS011;64924;42.140;24.762;2024-01-15T01:54:09;80.38;;;38.20;;
73869;SDS011;64924;42.140;24.762;2024-01-15T01:56:37;78.30;;;34.15;;
73869;SDS011;64924;42.140;24.762;2024-01-15T01:59:03;77.18;;;34.17;;
73869;SDS011;64924;42.140;24.762;2024-01-15T02:01:29;70.00;;;33.33;;
73869;SDS011;64924;42.140;24.762;2024-01-15T02:03:56;77.20;;;35.05;;
73869;SDS011;64924;42.140;24.762;2024-01-15T02:06:23;72.20;;;33.22;;
73869;SDS011;64924;42.140;24.762;2024-01-15T02:08:48;75.13;;;34.20;;
73869;SDS011;64924;42.140;24.762;2024-01-15T02:11:14;66.25;;;31.08;;
73869;SDS011;64924;42.140;24.762;2024-01-15T02:13:40;75.28;;;32.88;;
73869;SDS011;64924;42.140;24.762;2024-01-15T02:16:05;65.20;;;32.15;;
73869;SDS011;64924;42.140;24.762;2024-01-15T02:18:43;65.68;;;30.42;;
73869;SDS011;64924;42.140;24.762;2024-01-15T02:21:10;67.57;;;31.52;;
73869;SDS011;64924;42.140;24.762;2024-01-15T02:23:36;63.03;;;28.98;;
73869;SDS011;64924;42.140;24.762;2024-01-15T02:26:02;62.65;;;29.35;;
73869;SDS011;64924;42.140;24.762;2024-01-15T02:28:29;64.50;;;30.85;;
73869;SDS011;64924;42.140;24.762;2024-01-15T02:30:55;62.78;;;31.25;;
73869;SDS011;64924;42.140;24.762;2024-01-15T02:33:20;61.45;;;30.17;;
73869;SDS011;64924;42.140;24.762;2024-01-15T02:35:46;155.73;;;35.60;;
73869;SDS011;64924;42.140;24.762;2024-01-15T02:38:12;188.55;;;44.53;;
73869;SDS011;64924;42.140;24.762;2024-01-15T02:40:37;110.88;;;35.22;;
73869;SDS011;64924;42.140;24.762;2024-01-15T02:43:03;80.40;;;31.25;;
73869;SDS011;64924;42.140;24.762;2024-01-15T02:45:29;127.53;;;33.42;;
73869;SDS011;64924;42.140;24.762;2024-01-15T02:47:55;130.25;;;35.65;;
73869;SDS011;64924;42.140;24.762;2024-01-15T02:50:20;150.43;;;38.47;;
73869;SDS011;64924;42.140;24.762;2024-01-15T02:52:46;130.40;;;35.33;;
73869;SDS011;64924;42.140;24.762;2024-01-15T02:55:11;116.03;;;37.10;;
73869;SDS011;64924;42.140;24.762;2024-01-15T02:57:37;96.80;;;35.53;;
73869;SDS011;64924;42.140;24.762;2024-01-15T03:00:02;100.43;;;34.08;;
73869;SDS011;64924;42.140;24.762;2024-01-15T03:02:29;76.05;;;33.78;;
73869;SDS011;64924;42.140;24.762;2024-01-15T03:04:56;95.18;;;35.47;;
73869;SDS011;64924;42.140;24.762;2024-01-15T03:07:22;80.90;;;32.30;;
73869;SDS011;64924;42.140;24.762;2024-01-15T03:09:48;76.43;;;32.90;;
73869;SDS011;64924;42.140;24.762;2024-01-15T03:12:13;79.95;;;33.78;;
73869;SDS011;64924;42.140;24.762;2024-01-15T03:14:39;76.75;;;31.55;;
73869;SDS011;64924;42.140;24.762;2024-01-15T03:17:04;78.15;;;32.33;;
73869;SDS011;64924;42.140;24.762;2024-01-15T03:19:30;76.32;;;33.17;;
73869;SDS011;64924;42.140;24.762;2024-01-15T03:21:56;77.50;;;33.67;;
73869;SDS011;64924;42.140;24.762;2024-01-15T03:24:21;70.20;;;33.63;;
73869;SDS011;64924;42.140;24.762;2024-01-15T03:26:47;77.55;;;33.08;;
73869;SDS011;64924;42.140;24.762;2024-01-15T03:29:12;72.65;;;33.30;;
73869;SDS011;64924;42.140;24.762;2024-01-15T03:31:38;74.05;;;35.42;;
73869;SDS011;64924;42.140;24.762;2024-01-15T03:34:03;66.35;;;33.17;;
73869;SDS011;64924;42.140;24.762;2024-01-15T03:36:29;75.00;;;35.85;;
73869;SDS011;64924;42.140;24.762;2024-01-15T03:38:54;67.13;;;34.15;;
73869;SDS011;64924;42.140;24.762;2024-01-15T03:41:20;77.10;;;34.55;;
73869;SDS011;64924;42.140;24.762;2024-01-15T03:43:45;70.47;;;33.35;;
73869;SDS011;64924;42.140;24.762;2024-01-15T03:46:11;68.82;;;32.90;;
73869;SDS011;64924;42.140;24.762;2024-01-15T03:48:37;72.00;;;33.05;;
73869;SDS011;64924;42.140;24.762;2024-01-15T03:51:03;70.10;;;35.60;;
73869;SDS011;64924;42.140;24.762;2024-01-15T03:53:29;73.95;;;34.90;;
73869;SDS011;64924;42.140;24.762;2024-01-15T03:55:54;71.82;;;34.22;;
73869;SDS011;64924;42.140;24.762;2024-01-15T03:58:20;76.57;;;35.13;;
73869;SDS011;64924;42.140;24.762;2024-01-15T04:00:45;71.82;;;35.33;;
73869;SDS011;64924;42.140;24.762;2024-01-15T04:03:11;73.13;;;34.88;;
73869;SDS011;64924;42.140;24.762;2024-01-15T04:05:36;69.40;;;32.63;;
73869;SDS011;64924;42.140;24.762;2024-01-15T04:08:03;72.38;;;36.45;;
73869;SDS011;64924;42.140;24.762;2024-01-15T04:10:29;76.55;;;32.05;;
73869;SDS011;64924;42.140;24.762;2024-01-15T04:12:54;64.28;;;31.65;;
73869;SDS011;64924;42.140;24.762;2024-01-15T04:15:20;63.05;;;30.67;;
73869;SDS011;64924;42.140;24.762;2024-01-15T04:17:45;66.30;;;29.60;;
73869;SDS011;64924;42.140;24.762;2024-01-15T04:20:10;68.63;;;32.92;;
73869;SDS011;64924;42.140;24.762;2024-01-15T04:22:36;64.57;;;32.22;;
73869;SDS011;64924;42.140;24.762;2024-01-15T04:25:02;77.45;;;34.47;;
73869;SDS011;64924;42.140;24.762;2024-01-15T04:27:28;72.63;;;34.20;;
73869;SDS011;64924;42.140;24.762;2024-01-15T04:29:53;78.50;;;35.50;;
73869;SDS011;64924;42.140;24.762;2024-01-15T04:32:19;76.20;;;34.25;;
73869;SDS011;64924;42.140;24.762;2024-01-15T04:34:44;78.18;;;33.85;;
73869;SDS011;64924;42.140;24.762;2024-01-15T04:37:10;63.10;;;29.38;;
73869;SDS011;64924;42.140;24.762;2024-01-15T04:39:35;60.15;;;29.85;;
73869;SDS011;64924;42.140;24.762;2024-01-15T04:42:01;60.00;;;30.17;;
73869;SDS011;64924;42.140;24.762;2024-01-15T04:44:27;65.30;;;29.50;;
73869;SDS011;64924;42.140;24.762;2024-01-15T04:46:52;66.75;;;29.55;;
73869;SDS011;64924;42.140;24.762;2024-01-15T04:49:17;70.95;;;32.30;;
73869;SDS011;64924;42.140;24.762;2024-01-15T04:51:43;64.07;;;30.27;;
73869;SDS011;64924;42.140;24.762;2024-01-15T04:54:08;62.95;;;29.77;;
73869;SDS011;64924;42.140;24.762;2024-01-15T04:56:34;58.15;;;30.30;;
73869;SDS011;64924;42.140;24.762;2024-01-15T04:58:59;67.55;;;30.95;;
73869;SDS011;64924;42.140;24.762;2024-01-15T05:01:25;85.07;;;33.92;;
73869;SDS011;64924;42.140;24.762;2024-01-15T05:03:50;77.03;;;34.55;;
73869;SDS011;64924;42.140;24.762;2024-01-15T05:06:16;57.42;;;29.17;;
73869;SDS011;64924;42.140;24.762;2024-01-15T05:08:41;66.47;;;30.85;;
73869;SDS011;64924;42.140;24.762;2024-01-15T05:11:07;68.78;;;32.20;;
73869;SDS011;64924;42.140;24.762;2024-01-15T05:13:32;69.82;;;32.13;;
73869;SDS011;64924;42.140;24.762;2024-01-15T05:15:58;73.45;;;31.45;;
73869;SDS011;64924;42.140;24.762;2024-01-15T05:18:23;64.07;;;31.35;;
73869;SDS011;64924;42.140;24.762;2024-01-15T05:20:49;72.93;;;33.10;;
73869;SDS011;64924;42.140;24.762;2024-01-15T05:23:14;69.00;;;32.80;;
73869;SDS011;64924;42.140;24.762;2024-01-15T05:25:40;65.28;;;30.75;;
73869;SDS011;64924;42.140;24.762;2024-01-15T05:28:05;67.43;;;31.75;;
73869;SDS011;64924;42.140;24.762;2024-01-15T05:30:31;66.50;;;33.72;;
73869;SDS011;64924;42.140;24.762;2024-01-15T05:32:56;65.57;;;30.90;;
73869;SDS011;64924;42.140;24.762;2024-01-15T05:35:22;63.63;;;31.73;;
73869;SDS011;64924;42.140;24.762;2024-01-15T05:37:48;74.97;;;33.25;;
73869;SDS011;64924;42.140;24.762;2024-01-15T05:40:14;70.72;;;33.00;;
73869;SDS011;64924;42.140;24.762;2024-01-15T05:42:39;76.22;;;34.83;;
73869;SDS011;64924;42.140;24.762;2024-01-15T05:45:05;71.70;;;35.90;;
73869;SDS011;64924;42.140;24.762;2024-01-15T05:47:31;80.78;;;39.65;;
73869;SDS011;64924;42.140;24.762;2024-01-15T05:49:57;81.15;;;39.72;;
73869;SDS011;64924;42.140;24.762;2024-01-15T05:52:23;81.15;;;39.90;;
73869;SDS011;64924;42.140;24.762;2024-01-15T05:54:49;86.57;;;39.40;;
73869;SDS011;64924;42.140;24.762;2024-01-15T05:57:15;72.15;;;36.67;;
73869;SDS011;64924;42.140;24.762;2024-01-15T05:59:42;78.80;;;36.53;;
73869;SDS011;64924;42.140;24.762;2024-01-15T06:02:08;69.70;;;36.88;;
73869;SDS011;64924;42.140;24.762;2024-01-15T06:04:33;65.10;;;35.08;;
73869;SDS011;64924;42.140;24.762;2024-01-15T06:06:59;68.95;;;35.25;;
73869;SDS011;64924;42.140;24.762;2024-01-15T06:09:24;69.68;;;33.08;;
73869;SDS011;64924;42.140;24.762;2024-01-15T06:11:50;63.05;;;32.33;;
73869;SDS011;64924;42.140;24.762;2024-01-15T06:14:15;59.95;;;31.52;;
73869;SDS011;64924;42.140;24.762;2024-01-15T06:16:41;71.47;;;33.28;;
73869;SDS011;64924;42.140;24.762;2024-01-15T06:19:06;70.65;;;34.63;;
73869;SDS011;64924;42.140;24.762;2024-01-15T06:21:32;70.75;;;35.53;;
73869;SDS011;64924;42.140;24.762;2024-01-15T06:23:57;63.00;;;32.90;;
73869;SDS011;64924;42.140;24.762;2024-01-15T06:26:23;81.95;;;34.67;;
73869;SDS011;64924;42.140;24.762;2024-01-15T06:28:48;75.60;;;37.35;;
73869;SDS011;64924;42.140;24.762;2024-01-15T06:31:14;77.10;;;35.08;;
73869;SDS011;64924;42.140;24.762;2024-01-15T06:33:39;73.22;;;36.15;;
73869;SDS011;64924;42.140;24.762;2024-01-15T06:36:05;75.05;;;35.03;;
73869;SDS011;64924;42.140;24.762;2024-01-15T06:38:31;70.68;;;35.53;;
73869;SDS011;64924;42.140;24.762;2024-01-15T06:40:57;74.97;;;35.20;;
73869;SDS011;64924;42.140;24.762;2024-01-15T06:43:22;72.30;;;35.55;;
73869;SDS011;64924;42.140;24.762;2024-01-15T06:45:48;72.43;;;34.92;;
73869;SDS011;64924;42.140;24.762;2024-01-15T06:48:14;74.60;;;36.22;;
73869;SDS011;64924;42.140;24.762;2024-01-15T06:50:42;77.40;;;35.35;;
73869;SDS011;64924;42.140;24.762;2024-01-15T06:53:08;66.78;;;34.90;;
73869;SDS011;64924;42.140;24.762;2024-01-15T06:55:33;68.43;;;34.33;;
73869;SDS011;64924;42.140;24.762;2024-01-15T06:57:59;74.45;;;36.15;;
73869;SDS011;64924;42.140;24.762;2024-01-15T07:00:25;82.57;;;39.33;;
73869;SDS011;64924;42.140;24.762;2024-01-15T07:02:50;72.68;;;35.08;;
73869;SDS011;64924;42.140;24.762;2024-01-15T07:05:17;58.97;;;30.48;;
73869;SDS011;64924;42.140;24.762;2024-01-15T07:07:42;60.47;;;31.25;;
73869;SDS011;64924;42.140;24.762;2024-01-15T07:10:08;62.33;;;31.80;;
73869;SDS011;64924;42.140;24.762;2024-01-15T07:12:34;68.07;;;35.63;;
73869;SDS011;64924;42.140;24.762;2024-01-15T07:14:59;70.72;;;36.22;;
73869;SDS011;64924;42.140;24.762;2024-01-15T07:17:25;69.82;;;37.05;;
73869;SDS011;64924;42.140;24.762;2024-01-15T07:19:50;68.68;;;35.60;;
73869;SDS011;64924;42.140;24.762;2024-01-15T07:22:16;64.90;;;34.45;;
73869;SDS011;64924;42.140;24.762;2024-01-15T07:24:42;75.53;;;35.95;;
73869;SDS011;64924;42.140;24.762;2024-01-15T07:27:08;78.95;;;35.25;;
73869;SDS011;64924;42.140;24.762;2024-01-15T07:29:34;76.13;;;34.72;;
73869;SDS011;64924;42.140;24.762;2024-01-15T07:32:02;77.20;;;36.03;;
73869;SDS011;64924;42.140;24.762;2024-01-15T07:34:28;79.13;;;36.45;;
73869;SDS011;64924;42.140;24.762;2024-01-15T07:36:54;68.38;;;34.45;;
73869;SDS011;64924;42.140;24.762;2024-01-15T07:39:19;70.07;;;34.45;;
73869;SDS011;64924;42.140;24.762;2024-01-15T07:41:45;69.10;;;33.50;;
73869;SDS011;64924;42.140;24.762;2024-01-15T07:44:10;58.88;;;31.13;;
73869;SDS011;64924;42.140;24.762;2024-01-15T07:46:36;60.80;;;31.90;;
73869;SDS011;64924;42.140;24.762;2024-01-15T07:49:01;59.97;;;31.15;;
73869;SDS011;64924;42.140;24.762;2024-01-15T07:51:27;65.57;;;33.45;;
73869;SDS011;64924;42.140;24.762;2024-01-15T07:53:53;69.97;;;35.83;;
73869;SDS011;64924;42.140;24.762;2024-01-15T07:56:20;77.85;;;40.45;;
73869;SDS011;64924;42.140;24.762;2024-01-15T07:58:46;70.93;;;37.88;;
73869;SDS011;64924;42.140;24.762;2024-01-15T08:01:12;81.68;;;36.45;;
73869;SDS011;64924;42.140;24.762;2024-01-15T08:03:37;81.93;;;38.35;;
73869;SDS011;64924;42.140;24.762;2024-01-15T08:06:04;84.50;;;38.25;;
73869;SDS011;64924;42.140;24.762;2024-01-15T08:08:30;100.15;;;41.97;;
73869;SDS011;64924;42.140;24.762;2024-01-15T08:10:56;111.38;;;43.70;;
73869;SDS011;64924;42.140;24.762;2024-01-15T08:13:22;93.28;;;40.88;;
73869;SDS011;64924;42.140;24.762;2024-01-15T08:15:47;84.10;;;39.95;;
73869;SDS011;64924;42.140;24.762;2024-01-15T08:18:13;78.50;;;36.83;;
73869;SDS011;64924;42.140;24.762;2024-01-15T08:20:39;70.32;;;34.38;;
73869;SDS011;64924;42.140;24.762;2024-01-15T08:23:05;75.93;;;35.95;;
73869;SDS011;64924;42.140;24.762;2024-01-15T08:25:30;70.13;;;35.50;;
73869;SDS011;64924;42.140;24.762;2024-01-15T08:27:56;67.15;;;36.22;;
73869;SDS011;64924;42.140;24.762;2024-01-15T08:30:25;73.17;;;38.57;;
73869;SDS011;64924;42.140;24.762;2024-01-15T08:32:55;70.60;;;37.35;;
73869;SDS011;64924;42.140;24.762;2024-01-15T08:35:21;68.55;;;38.25;;
73869;SDS011;64924;42.140;24.762;2024-01-15T08:37:51;66.32;;;37.45;;
73869;SDS011;64924;42.140;24.762;2024-01-15T08:40:16;60.67;;;33.47;;
73869;SDS011;64924;42.140;24.762;2024-01-15T08:42:42;77.43;;;37.45;;
73869;SDS011;64924;42.140;24.762;2024-01-15T08:45:08;63.55;;;32.75;;
73869;SDS011;64924;42.140;24.762;2024-01-15T08:47:34;65.72;;;34.30;;
73869;SDS011;64924;42.140;24.762;2024-01-15T08:50:00;68.10;;;36.28;;
73869;SDS011;64924;42.140;24.762;2024-01-15T08:52:25;59.88;;;33.80;;
73869;SDS011;64924;42.140;24.762;2024-01-15T08:54:51;67.47;;;35.22;;
73869;SDS011;64924;42.140;24.762;2024-01-15T08:57:17;65.55;;;35.90;;
73869;SDS011;64924;42.140;24.762;2024-01-15T08:59:42;67.80;;;36.10;;
73869;SDS011;64924;42.140;24.762;2024-01-15T09:02:08;68.22;;;36.10;;
73869;SDS011;64924;42.140;24.762;2024-01-15T09:04:33;72.07;;;36.45;;
73869;SDS011;64924;42.140;24.762;2024-01-15T09:06:59;67.35;;;36.22;;
73869;SDS011;64924;42.140;24.762;2024-01-15T09:09:24;65.88;;;36.25;;
73869;SDS011;64924;42.140;24.762;2024-01-15T09:11:50;74.00;;;36.50;;
73869;SDS011;64924;42.140;24.762;2024-01-15T09:14:16;101.57;;;50.58;;
73869;SDS011;64924;42.140;24.762;2024-01-15T09:16:42;90.13;;;41.67;;
73869;SDS011;64924;42.140;24.762;2024-01-15T09:19:07;86.43;;;44.35;;
73869;SDS011;64924;42.140;24.762;2024-01-15T09:21:33;77.57;;;40.28;;
73869;SDS011;64924;42.140;24.762;2024-01-15T09:23:58;80.35;;;42.63;;
73869;SDS011;64924;42.140;24.762;2024-01-15T09:26:24;98.57;;;48.38;;
73869;SDS011;64924;42.140;24.762;2024-01-15T09:28:49;84.15;;;41.80;;
73869;SDS011;64924;42.140;24.762;2024-01-15T09:31:15;78.05;;;40.47;;
73869;SDS011;64924;42.140;24.762;2024-01-15T09:33:42;94.57;;;48.88;;
73869;SDS011;64924;42.140;24.762;2024-01-15T09:36:09;84.88;;;43.30;;
73869;SDS011;64924;42.140;24.762;2024-01-15T09:38:34;95.80;;;48.17;;
73869;SDS011;64924;42.140;24.762;2024-01-15T09:41:00;80.70;;;41.45;;
73869;SDS011;64924;42.140;24.762;2024-01-15T09:43:25;76.80;;;38.15;;
73869;SDS011;64924;42.140;24.762;2024-01-15T09:45:51;67.15;;;34.83;;
73869;SDS011;64924;42.140;24.762;2024-01-15T09:48:18;61.97;;;34.58;;
73869;SDS011;64924;42.140;24.762;2024-01-15T09:50:44;59.90;;;33.97;;
73869;SDS011;64924;42.140;24.762;2024-01-15T09:53:10;57.67;;;32.30;;
73869;SDS011;64924;42.140;24.762;2024-01-15T09:55:38;61.10;;;32.55;;
73869;SDS011;64924;42.140;24.762;2024-01-15T09:58:04;64.32;;;33.20;;
73869;SDS011;64924;42.140;24.762;2024-01-15T10:00:30;64.35;;;35.38;;
73869;SDS011;64924;42.140;24.762;2024-01-15T10:02:56;63.78;;;32.38;;
73869;SDS011;64924;42.140;24.762;2024-01-15T10:05:22;60.65;;;31.50;;
73869;SDS011;64924;42.140;24.762;2024-01-15T10:07:47;55.10;;;31.05;;
73869;SDS011;64924;42.140;24.762;2024-01-15T10:10:15;62.75;;;33.13;;
73869;SDS011;64924;42.140;24.762;2024-01-15T10:12:40;66.10;;;35.90;;
73869;SDS011;64924;42.140;24.762;2024-01-15T10:15:10;59.42;;;30.67;;
73869;SDS011;64924;42.140;24.762;2024-01-15T10:17:37;54.53;;;26.83;;
73869;SDS011;64924;42.140;24.762;2024-01-15T10:20:07;54.17;;;28.67;;
73869;SDS011;64924;42.140;24.762;2024-01-15T10:22:38;55.08;;;30.05;;
73869;SDS011;64924;42.140;24.762;2024-01-15T10:25:05;62.08;;;32.60;;
73869;SDS011;64924;42.140;24.762;2024-01-15T10:27:31;58.97;;;33.55;;
73869;SDS011;64924;42.140;24.762;2024-01-15T10:30:00;56.67;;;29.73;;
73869;SDS011;64924;42.140;24.762;2024-01-15T10:34:54;60.55;;;29.55;;
73869;SDS011;64924;42.140;24.762;2024-01-15T10:37:20;54.03;;;28.50;;
73869;SDS011;64924;42.140;24.762;2024-01-15T10:39:48;55.53;;;27.80;;
73869;SDS011;64924;42.140;24.762;2024-01-15T10:42:14;58.97;;;29.80;;
73869;SDS011;64924;42.140;24.762;2024-01-15T10:44:41;53.72;;;29.15;;
73869;SDS011;64924;42.140;24.762;2024-01-15T10:47:08;61.22;;;32.30;;
73869;SDS011;64924;42.140;24.762;2024-01-15T10:49:34;62.00;;;31.38;;
73869;SDS011;64924;42.140;24.762;2024-01-15T10:52:00;61.67;;;32.25;;
73869;SDS011;64924;42.140;24.762;2024-01-15T10:54:27;57.17;;;31.67;;
73869;SDS011;64924;42.140;24.762;2024-01-15T10:56:53;57.88;;;33.45;;
73869;SDS011;64924;42.140;24.762;2024-01-15T10:59:21;67.22;;;35.10;;
73869;SDS011;64924;42.140;24.762;2024-01-15T11:01:47;70.40;;;35.42;;
73869;SDS011;64924;42.140;24.762;2024-01-15T11:04:14;74.43;;;35.20;;
73869;SDS011;64924;42.140;24.762;2024-01-15T11:06:45;65.18;;;35.25;;
73869;SDS011;64924;42.140;24.762;2024-01-15T11:09:12;70.70;;;37.20;;
73869;SDS011;64924;42.140;24.762;2024-01-15T11:11:44;58.55;;;32.45;;
73869;SDS011;64924;42.140;24.762;2024-01-15T11:14:33;62.80;;;31.85;;
73869;SDS011;64924;42.140;24.762;2024-01-15T11:17:13;58.92;;;31.30;;
73869;SDS011;64924;42.140;24.762;2024-01-15T11:22:08;71.47;;;35.13;;
73869;SDS011;64924;42.140;24.762;2024-01-15T11:24:38;68.55;;;34.70;;
73869;SDS011;64924;42.140;24.762;2024-01-15T11:27:05;69.72;;;35.35;;
73869;SDS011;64924;42.140;24.762;2024-01-15T11:29:35;69.85;;;33.65;;
73869;SDS011;64924;42.140;24.762;2024-01-15T11:32:02;65.47;;;33.00;;
73869;SDS011;64924;42.140;24.762;2024-01-15T11:37:27;52.28;;;28.60;;
73869;SDS011;64924;42.140;24.762;2024-01-15T11:40:13;57.08;;;29.50;;
73869;SDS011;64924;42.140;24.762;2024-01-15T11:42:44;53.08;;;25.52;;
73869;SDS011;64924;42.140;24.762;2024-01-15T11:45:10;50.85;;;26.83;;
73869;SDS011;64924;42.140;24.762;2024-01-15T11:50:32;52.05;;;27.15;;
73869;SDS011;64924;42.140;24.762;2024-01-15T11:53:00;55.00;;;28.13;;
73869;SDS011;64924;42.140;24.762;2024-01-15T11:55:27;65.97;;;30.58;;
73869;SDS011;64924;42.140;24.762;2024-01-15T11:57:57;53.30;;;29.07;;
73869;SDS011;64924;42.140;24.762;2024-01-15T12:00:25;51.63;;;26.05;;
73869;SDS011;64924;42.140;24.762;2024-01-15T12:02:51;44.10;;;22.60;;
73869;SDS011;64924;42.140;24.762;2024-01-15T12:05:17;38.83;;;21.00;;
73869;SDS011;64924;42.140;24.762;2024-01-15T12:07:44;40.67;;;21.20;;
73869;SDS011;64924;42.140;24.762;2024-01-15T12:10:11;39.85;;;21.15;;
73869;SDS011;64924;42.140;24.762;2024-01-15T12:15:24;47.45;;;26.10;;
73869;SDS011;64924;42.140;24.762;2024-01-15T12:17:51;49.03;;;25.88;;
73869;SDS011;64924;42.140;24.762;2024-01-15T12:20:17;50.40;;;26.60;;
73869;SDS011;64924;42.140;24.762;2024-01-15T12:22:43;52.97;;;29.42;;
73869;SDS011;64924;42.140;24.762;2024-01-15T12:25:09;53.50;;;30.52;;
73869;SDS011;64924;42.140;24.762;2024-01-15T12:27:35;59.90;;;31.75;;
73869;SDS011;64924;42.140;24.762;2024-01-15T12:30:01;62.33;;;33.63;;
73869;SDS011;64924;42.140;24.762;2024-01-15T12:32:26;76.90;;;38.78;;
73869;SDS011;64924;42.140;24.762;2024-01-15T12:34:52;77.18;;;40.88;;
73869;SDS011;64924;42.140;24.762;2024-01-15T12:37:20;80.30;;;43.78;;
73869;SDS011;64924;42.140;24.762;2024-01-15T12:39:46;85.00;;;43.30;;
73869;SDS011;64924;42.140;24.762;2024-01-15T12:42:16;77.50;;;42.75;;
73869;SDS011;64924;42.140;24.762;2024-01-15T12:44:42;81.10;;;42.58;;
73869;SDS011;64924;42.140;24.762;2024-01-15T12:47:08;82.20;;;44.08;;
73869;SDS011;64924;42.140;24.762;2024-01-15T12:49:35;80.35;;;43.33;;
73869;SDS011;64924;42.140;24.762;2024-01-15T12:52:07;96.53;;;45.08;;
73869;SDS011;64924;42.140;24.762;2024-01-15T12:54:33;73.72;;;41.40;;
73869;SDS011;64924;42.140;24.762;2024-01-15T12:56:59;79.93;;;42.45;;
73869;SDS011;64924;42.140;24.762;2024-01-15T12:59:24;77.22;;;41.08;;
73869;SDS011;64924;42.140;24.762;2024-01-15T13:01:50;66.90;;;39.53;;
73869;SDS011;64924;42.140;24.762;2024-01-15T13:04:22;74.45;;;41.78;;
73869;SDS011;64924;42.140;24.762;2024-01-15T13:06:49;83.03;;;43.08;;
73869;SDS011;64924;42.140;24.762;2024-01-15T13:09:17;80.70;;;42.70;;
73869;SDS011;64924;42.140;24.762;2024-01-15T13:11:44;80.60;;;41.70;;
73869;SDS011;64924;42.140;24.762;2024-01-15T13:14:10;87.05;;;41.83;;
73869;SDS011;64924;42.140;24.762;2024-01-15T13:16:35;84.10;;;43.13;;
73869;SDS011;64924;42.140;24.762;2024-01-15T13:19:01;82.57;;;42.20;;
73869;SDS011;64924;42.140;24.762;2024-01-15T13:21:28;79.07;;;40.33;;
73869;SDS011;64924;42.140;24.762;2024-01-15T13:23:54;86.05;;;42.60;;
73869;SDS011;64924;42.140;24.762;2024-01-15T13:26:20;89.32;;;44.45;;
73869;SDS011;64924;42.140;24.762;2024-01-15T13:28:46;84.05;;;44.88;;
73869;SDS011;64924;42.140;24.762;2024-01-15T13:31:11;82.65;;;43.58;;
73869;SDS011;64924;42.140;24.762;2024-01-15T13:33:38;83.53;;;43.30;;
73869;SDS011;64924;42.140;24.762;2024-01-15T13:36:03;87.07;;;43.83;;
73869;SDS011;64924;42.140;24.762;2024-01-15T13:38:33;81.90;;;42.00;;
73869;SDS011;64924;42.140;24.762;2024-01-15T13:41:01;82.00;;;43.28;;
73869;SDS011;64924;42.140;24.762;2024-01-15T13:43:26;78.07;;;43.00;;
73869;SDS011;64924;42.140;24.762;2024-01-15T13:45:52;87.22;;;44.15;;
73869;SDS011;64924;42.140;24.762;2024-01-15T13:48:19;87.43;;;42.83;;
73869;SDS011;64924;42.140;24.762;2024-01-15T13:50:44;92.15;;;45.03;;
73869;SDS011;64924;42.140;24.762;2024-01-15T13:53:10;85.55;;;42.63;;
73869;SDS011;64924;42.140;24.762;2024-01-15T13:55:35;104.82;;;45.33;;
73869;SDS011;64924;42.140;24.762;2024-01-15T13:58:01;88.20;;;47.10;;
73869;SDS011;64924;42.140;24.762;2024-01-15T14:00:28;92.05;;;44.53;;
73869;SDS011;64924;42.140;24.762;2024-01-15T14:02:54;98.90;;;48.47;;
73869;SDS011;64924;42.140;24.762;2024-01-15T14:05:19;85.72;;;46.30;;
73869;SDS011;64924;42.140;24.762;2024-01-15T14:07:45;93.28;;;46.80;;
73869;SDS011;64924;42.140;24.762;2024-01-15T14:10:12;88.43;;;46.10;;
73869;SDS011;64924;42.140;24.762;2024-01-15T14:12:37;85.47;;;45.22;;
73869;SDS011;64924;42.140;24.762;2024-01-15T14:15:03;81.72;;;43.92;;